Itapetininga, Brazil
Current Conditions -  °F | °C
As of 12:00 PM on Wednesday 28 Jan 2015 (Local Time) from SBKP Reporting Station
Broken Clouds Broken Clouds  
Wind Chill: 79°   Ceiling: 3000
Heat Index: 81°   Visibility: 6mi
Dew Point: 66°   Wind: 8mph
Humidity: 65%   Direction: 330°NNW
Pressure: 30.09"   Gusts: NA
Location:  23.59°S, 48.04°W
Report Text: SBKP 281400Z 33007KT 9999 BKN030 BKN100 26/19 Q1019
Loading
Personal Weather Stations






























Interactive Weather Map New forecast layout! Learn more

10-Day Weather Forecast

Advertisements
Track Severe Weather on mobile